sensor_id;sensor_type;location;lat;lon;timestamp;P1;durP1;ratioP1;P2;durP2;ratioP2
75739;SDS011;64357;51.344;6.550;2023-07-02T00:01:28;5.82;;;2.60;;
75739;SDS011;64357;51.344;6.550;2023-07-02T00:03:53;8.57;;;2.40;;
75739;SDS011;64357;51.344;6.550;2023-07-02T00:06:21;8.32;;;2.97;;
75739;SDS011;64357;51.344;6.550;2023-07-02T00:08:46;7.63;;;2.30;;
75739;SDS011;64357;51.344;6.550;2023-07-02T00:11:15;6.55;;;2.67;;
75739;SDS011;64357;51.344;6.550;2023-07-02T00:13:40;9.50;;;3.25;;
75739;SDS011;64357;51.344;6.550;2023-07-02T00:16:06;7.97;;;2.40;;
75739;SDS011;64357;51.344;6.550;2023-07-02T00:18:31;10.93;;;2.53;;
75739;SDS011;64357;51.344;6.550;2023-07-02T00:21:02;8.43;;;2.20;;
75739;SDS011;64357;51.344;6.550;2023-07-02T00:23:30;6.22;;;2.40;;
75739;SDS011;64357;51.344;6.550;2023-07-02T00:25:58;5.55;;;2.30;;
75739;SDS011;64357;51.344;6.550;2023-07-02T00:28:24;13.27;;;2.67;;
75739;SDS011;64357;51.344;6.550;2023-07-02T00:30:49;7.03;;;2.20;;
75739;SDS011;64357;51.344;6.550;2023-07-02T00:33:15;7.72;;;2.45;;
75739;SDS011;64357;51.344;6.550;2023-07-02T00:35:40;7.20;;;2.70;;
75739;SDS011;64357;51.344;6.550;2023-07-02T00:38:13;9.30;;;2.60;;
75739;SDS011;64357;51.344;6.550;2023-07-02T00:40:39;10.95;;;2.80;;
75739;SDS011;64357;51.344;6.550;2023-07-02T00:43:07;7.30;;;2.55;;
75739;SDS011;64357;51.344;6.550;2023-07-02T00:45:38;4.93;;;2.05;;
75739;SDS011;64357;51.344;6.550;2023-07-02T00:48:06;7.28;;;2.50;;
75739;SDS011;64357;51.344;6.550;2023-07-02T00:50:32;9.48;;;2.53;;
75739;SDS011;64357;51.344;6.550;2023-07-02T00:53:00;9.07;;;2.67;;
75739;SDS011;64357;51.344;6.550;2023-07-02T00:55:25;7.93;;;3.07;;
75739;SDS011;64357;51.344;6.550;2023-07-02T00:57:50;7.43;;;2.90;;
75739;SDS011;64357;51.344;6.550;2023-07-02T01:00:18;8.10;;;2.47;;
75739;SDS011;64357;51.344;6.550;2023-07-02T01:02:49;8.30;;;2.78;;
75739;SDS011;64357;51.344;6.550;2023-07-02T01:05:24;8.75;;;2.63;;
75739;SDS011;64357;51.344;6.550;2023-07-02T01:07:50;8.18;;;2.53;;
75739;SDS011;64357;51.344;6.550;2023-07-02T01:10:18;8.30;;;2.80;;
75739;SDS011;64357;51.344;6.550;2023-07-02T01:12:44;8.60;;;2.83;;
75739;SDS011;64357;51.344;6.550;2023-07-02T01:15:10;10.15;;;2.95;;
75739;SDS011;64357;51.344;6.550;2023-07-02T01:17:36;10.13;;;2.53;;
75739;SDS011;64357;51.344;6.550;2023-07-02T01:20:10;9.65;;;3.13;;
75739;SDS011;64357;51.344;6.550;2023-07-02T01:22:41;9.07;;;3.10;;
75739;SDS011;64357;51.344;6.550;2023-07-02T01:25:16;10.07;;;2.88;;
75739;SDS011;64357;51.344;6.550;2023-07-02T01:27:44;8.07;;;2.47;;
75739;SDS011;64357;51.344;6.550;2023-07-02T01:30:10;10.80;;;3.00;;
75739;SDS011;64357;51.344;6.550;2023-07-02T01:32:38;9.85;;;3.00;;
75739;SDS011;64357;51.344;6.550;2023-07-02T01:35:04;14.90;;;3.28;;
75739;SDS011;64357;51.344;6.550;2023-07-02T01:37:32;9.23;;;2.70;;
75739;SDS011;64357;51.344;6.550;2023-07-02T01:40:02;10.73;;;3.30;;
75739;SDS011;64357;51.344;6.550;2023-07-02T01:42:28;9.40;;;3.17;;
75739;SDS011;64357;51.344;6.550;2023-07-02T01:44:53;10.67;;;3.57;;
75739;SDS011;64357;51.344;6.550;2023-07-02T01:47:19;10.95;;;3.55;;
75739;SDS011;64357;51.344;6.550;2023-07-02T01:49:45;10.57;;;3.47;;
75739;SDS011;64357;51.344;6.550;2023-07-02T01:52:10;11.02;;;3.53;;
75739;SDS011;64357;51.344;6.550;2023-07-02T01:54:38;9.02;;;3.80;;
75739;SDS011;64357;51.344;6.550;2023-07-02T01:57:03;9.17;;;2.93;;
75739;SDS011;64357;51.344;6.550;2023-07-02T01:59:29;11.63;;;3.63;;
75739;SDS011;64357;51.344;6.550;2023-07-02T02:01:57;10.47;;;3.53;;
75739;SDS011;64357;51.344;6.550;2023-07-02T02:04:22;11.50;;;3.83;;
75739;SDS011;64357;51.344;6.550;2023-07-02T02:06:50;8.73;;;3.10;;
75739;SDS011;64357;51.344;6.550;2023-07-02T02:09:18;11.77;;;4.20;;
75739;SDS011;64357;51.344;6.550;2023-07-02T02:11:44;9.73;;;3.13;;
75739;SDS011;64357;51.344;6.550;2023-07-02T02:14:12;12.57;;;3.88;;
75739;SDS011;64357;51.344;6.550;2023-07-02T02:16:38;13.35;;;3.55;;
75739;SDS011;64357;51.344;6.550;2023-07-02T02:19:03;11.37;;;4.00;;
75739;SDS011;64357;51.344;6.550;2023-07-02T02:21:29;9.77;;;3.80;;
75739;SDS011;64357;51.344;6.550;2023-07-02T02:23:54;12.05;;;4.18;;
75739;SDS011;64357;51.344;6.550;2023-07-02T02:26:22;12.05;;;3.90;;
75739;SDS011;64357;51.344;6.550;2023-07-02T02:28:51;12.77;;;4.53;;
75739;SDS011;64357;51.344;6.550;2023-07-02T02:31:17;12.63;;;4.55;;
75739;SDS011;64357;51.344;6.550;2023-07-02T02:33:45;12.30;;;4.45;;
75739;SDS011;64357;51.344;6.550;2023-07-02T02:36:10;13.32;;;4.47;;
75739;SDS011;64357;51.344;6.550;2023-07-02T02:38:36;16.35;;;4.50;;
75739;SDS011;64357;51.344;6.550;2023-07-02T02:41:04;15.30;;;4.80;;
75739;SDS011;64357;51.344;6.550;2023-07-02T02:43:31;14.68;;;4.75;;
75739;SDS011;64357;51.344;6.550;2023-07-02T02:45:56;18.23;;;4.80;;
75739;SDS011;64357;51.344;6.550;2023-07-02T02:48:22;12.33;;;4.80;;
75739;SDS011;64357;51.344;6.550;2023-07-02T02:50:48;13.90;;;4.40;;
75739;SDS011;64357;51.344;6.550;2023-07-02T02:53:13;15.93;;;5.75;;
75739;SDS011;64357;51.344;6.550;2023-07-02T02:55:39;16.30;;;5.17;;
75739;SDS011;64357;51.344;6.550;2023-07-02T02:58:04;18.70;;;6.70;;
75739;SDS011;64357;51.344;6.550;2023-07-02T03:00:30;16.58;;;6.28;;
75739;SDS011;64357;51.344;6.550;2023-07-02T03:02:57;15.77;;;5.55;;
75739;SDS011;64357;51.344;6.550;2023-07-02T03:05:25;16.38;;;5.97;;
75739;SDS011;64357;51.344;6.550;2023-07-02T03:07:51;24.17;;;6.47;;
75739;SDS011;64357;51.344;6.550;2023-07-02T03:10:17;20.25;;;5.63;;
75739;SDS011;64357;51.344;6.550;2023-07-02T03:12:42;16.52;;;5.10;;
75739;SDS011;64357;51.344;6.550;2023-07-02T03:15:10;15.38;;;5.47;;
75739;SDS011;64357;51.344;6.550;2023-07-02T03:17:36;13.70;;;5.32;;
75739;SDS011;64357;51.344;6.550;2023-07-02T03:20:02;16.20;;;5.43;;
75739;SDS011;64357;51.344;6.550;2023-07-02T03:22:32;15.43;;;5.93;;
75739;SDS011;64357;51.344;6.550;2023-07-02T03:25:00;17.35;;;6.30;;
75739;SDS011;64357;51.344;6.550;2023-07-02T03:27:30;19.73;;;6.25;;
75739;SDS011;64357;51.344;6.550;2023-07-02T03:29:58;16.33;;;5.50;;
75739;SDS011;64357;51.344;6.550;2023-07-02T03:32:25;18.27;;;6.30;;
75739;SDS011;64357;51.344;6.550;2023-07-02T03:34:51;17.23;;;6.10;;
75739;SDS011;64357;51.344;6.550;2023-07-02T03:37:16;15.48;;;5.95;;
75739;SDS011;64357;51.344;6.550;2023-07-02T03:39:43;19.60;;;6.10;;
75739;SDS011;64357;51.344;6.550;2023-07-02T03:42:08;18.43;;;5.63;;
75739;SDS011;64357;51.344;6.550;2023-07-02T03:44:38;11.18;;;4.30;;
75739;SDS011;64357;51.344;6.550;2023-07-02T03:47:04;20.30;;;5.85;;
75739;SDS011;64357;51.344;6.550;2023-07-02T03:49:30;20.10;;;6.43;;
75739;SDS011;64357;51.344;6.550;2023-07-02T03:51:58;20.90;;;6.17;;
75739;SDS011;64357;51.344;6.550;2023-07-02T03:54:25;18.52;;;6.07;;
75739;SDS011;64357;51.344;6.550;2023-07-02T03:56:50;17.48;;;5.85;;
75739;SDS011;64357;51.344;6.550;2023-07-02T03:59:16;19.33;;;5.50;;
75739;SDS011;64357;51.344;6.550;2023-07-02T04:01:43;15.23;;;5.78;;
75739;SDS011;64357;51.344;6.550;2023-07-02T04:04:09;18.67;;;6.30;;
75739;SDS011;64357;51.344;6.550;2023-07-02T04:06:34;18.93;;;6.20;;
75739;SDS011;64357;51.344;6.550;2023-07-02T04:08:59;22.57;;;7.43;;
75739;SDS011;64357;51.344;6.550;2023-07-02T04:11:25;18.63;;;6.50;;
75739;SDS011;64357;51.344;6.550;2023-07-02T04:13:50;21.40;;;6.50;;
75739;SDS011;64357;51.344;6.550;2023-07-02T04:16:18;19.13;;;6.82;;
75739;SDS011;64357;51.344;6.550;2023-07-02T04:18:43;17.63;;;6.80;;
75739;SDS011;64357;51.344;6.550;2023-07-02T04:21:08;18.17;;;6.20;;
75739;SDS011;64357;51.344;6.550;2023-07-02T04:23:36;19.42;;;6.88;;
75739;SDS011;64357;51.344;6.550;2023-07-02T04:26:02;20.17;;;6.38;;
75739;SDS011;64357;51.344;6.550;2023-07-02T04:28:27;24.33;;;7.47;;
75739;SDS011;64357;51.344;6.550;2023-07-02T04:30:55;18.10;;;7.15;;
75739;SDS011;64357;51.344;6.550;2023-07-02T04:33:20;18.53;;;6.43;;
75739;SDS011;64357;51.344;6.550;2023-07-02T04:35:48;20.63;;;7.38;;
75739;SDS011;64357;51.344;6.550;2023-07-02T04:38:13;21.35;;;7.75;;
75739;SDS011;64357;51.344;6.550;2023-07-02T04:40:38;17.23;;;6.70;;
75739;SDS011;64357;51.344;6.550;2023-07-02T04:43:04;18.10;;;7.68;;
75739;SDS011;64357;51.344;6.550;2023-07-02T04:45:30;23.33;;;7.47;;
75739;SDS011;64357;51.344;6.550;2023-07-02T04:48:01;18.13;;;6.78;;
75739;SDS011;64357;51.344;6.550;2023-07-02T04:50:29;18.08;;;6.00;;
75739;SDS011;64357;51.344;6.550;2023-07-02T04:52:55;16.85;;;5.72;;
75739;SDS011;64357;51.344;6.550;2023-07-02T04:55:21;20.10;;;7.15;;
75739;SDS011;64357;51.344;6.550;2023-07-02T04:57:50;21.13;;;7.35;;
75739;SDS011;64357;51.344;6.550;2023-07-02T05:00:15;21.77;;;8.10;;
75739;SDS011;64357;51.344;6.550;2023-07-02T05:02:41;21.83;;;7.35;;
75739;SDS011;64357;51.344;6.550;2023-07-02T05:05:07;25.73;;;7.35;;
75739;SDS011;64357;51.344;6.550;2023-07-02T05:07:35;20.77;;;6.85;;
75739;SDS011;64357;51.344;6.550;2023-07-02T05:10:05;23.58;;;8.23;;
75739;SDS011;64357;51.344;6.550;2023-07-02T05:12:30;20.90;;;7.93;;
75739;SDS011;64357;51.344;6.550;2023-07-02T05:15:00;19.00;;;6.35;;
75739;SDS011;64357;51.344;6.550;2023-07-02T05:17:28;20.63;;;6.57;;
75739;SDS011;64357;51.344;6.550;2023-07-02T05:19:59;21.67;;;6.57;;
75739;SDS011;64357;51.344;6.550;2023-07-02T05:22:25;22.75;;;7.93;;
75739;SDS011;64357;51.344;6.550;2023-07-02T05:24:50;21.50;;;7.77;;
75739;SDS011;64357;51.344;6.550;2023-07-02T05:27:18;22.27;;;8.45;;
75739;SDS011;64357;51.344;6.550;2023-07-02T05:29:43;19.73;;;7.00;;
75739;SDS011;64357;51.344;6.550;2023-07-02T05:32:09;21.65;;;7.97;;
75739;SDS011;64357;51.344;6.550;2023-07-02T05:34:34;28.97;;;8.30;;
75739;SDS011;64357;51.344;6.550;2023-07-02T05:37:02;20.75;;;7.43;;
75739;SDS011;64357;51.344;6.550;2023-07-02T05:39:27;17.98;;;6.40;;
75739;SDS011;64357;51.344;6.550;2023-07-02T05:41:53;23.35;;;8.00;;
75739;SDS011;64357;51.344;6.550;2023-07-02T05:44:18;20.98;;;7.88;;
75739;SDS011;64357;51.344;6.550;2023-07-02T05:46:50;15.10;;;5.32;;
75739;SDS011;64357;51.344;6.550;2023-07-02T05:49:15;19.50;;;7.30;;
75739;SDS011;64357;51.344;6.550;2023-07-02T05:51:41;19.17;;;6.73;;
75739;SDS011;64357;51.344;6.550;2023-07-02T05:54:06;16.02;;;5.97;;
75739;SDS011;64357;51.344;6.550;2023-07-02T05:56:34;22.13;;;7.53;;
75739;SDS011;64357;51.344;6.550;2023-07-02T05:59:00;18.88;;;7.07;;
75739;SDS011;64357;51.344;6.550;2023-07-02T06:01:28;23.85;;;7.32;;
75739;SDS011;64357;51.344;6.550;2023-07-02T06:03:53;23.70;;;7.60;;
75739;SDS011;64357;51.344;6.550;2023-07-02T06:06:19;15.57;;;6.30;;
75739;SDS011;64357;51.344;6.550;2023-07-02T06:08:48;19.63;;;7.47;;
75739;SDS011;64357;51.344;6.550;2023-07-02T06:11:15;18.10;;;6.03;;
75739;SDS011;64357;51.344;6.550;2023-07-02T06:13:41;20.10;;;7.63;;
75739;SDS011;64357;51.344;6.550;2023-07-02T06:16:06;21.27;;;7.65;;
75739;SDS011;64357;51.344;6.550;2023-07-02T06:18:32;22.98;;;7.30;;
75739;SDS011;64357;51.344;6.550;2023-07-02T06:20:57;21.27;;;7.20;;
75739;SDS011;64357;51.344;6.550;2023-07-02T06:23:23;21.75;;;8.20;;
75739;SDS011;64357;51.344;6.550;2023-07-02T06:25:51;20.95;;;6.65;;
75739;SDS011;64357;51.344;6.550;2023-07-02T06:28:25;19.67;;;6.57;;
75739;SDS011;64357;51.344;6.550;2023-07-02T06:30:53;15.52;;;5.00;;
75739;SDS011;64357;51.344;6.550;2023-07-02T06:33:19;20.45;;;7.00;;
75739;SDS011;64357;51.344;6.550;2023-07-02T06:35:47;20.63;;;7.15;;
75739;SDS011;64357;51.344;6.550;2023-07-02T06:38:15;15.07;;;4.72;;
75739;SDS011;64357;51.344;6.550;2023-07-02T06:40:45;17.77;;;5.85;;
75739;SDS011;64357;51.344;6.550;2023-07-02T06:43:11;21.33;;;5.87;;
75739;SDS011;64357;51.344;6.550;2023-07-02T06:45:36;16.65;;;6.05;;
75739;SDS011;64357;51.344;6.550;2023-07-02T06:48:02;19.35;;;6.45;;
75739;SDS011;64357;51.344;6.550;2023-07-02T06:50:27;19.73;;;5.32;;
75739;SDS011;64357;51.344;6.550;2023-07-02T06:52:53;15.32;;;5.28;;
75739;SDS011;64357;51.344;6.550;2023-07-02T06:55:21;18.40;;;6.28;;
75739;SDS011;64357;51.344;6.550;2023-07-02T06:57:48;14.23;;;5.38;;
75739;SDS011;64357;51.344;6.550;2023-07-02T07:00:14;17.00;;;5.82;;
75739;SDS011;64357;51.344;6.550;2023-07-02T07:02:40;20.75;;;6.30;;
75739;SDS011;64357;51.344;6.550;2023-07-02T07:05:05;16.85;;;7.35;;
75739;SDS011;64357;51.344;6.550;2023-07-02T07:07:31;17.10;;;5.43;;
75739;SDS011;64357;51.344;6.550;2023-07-02T07:09:57;16.58;;;6.65;;
75739;SDS011;64357;51.344;6.550;2023-07-02T07:12:24;14.17;;;4.77;;
75739;SDS011;64357;51.344;6.550;2023-07-02T07:14:50;19.90;;;5.18;;
75739;SDS011;64357;51.344;6.550;2023-07-02T07:17:15;20.35;;;5.63;;
75739;SDS011;64357;51.344;6.550;2023-07-02T07:19:43;19.23;;;6.22;;
75739;SDS011;64357;51.344;6.550;2023-07-02T07:22:10;15.57;;;5.60;;
75739;SDS011;64357;51.344;6.550;2023-07-02T07:24:36;13.43;;;5.30;;
75739;SDS011;64357;51.344;6.550;2023-07-02T07:27:01;12.27;;;4.40;;
75739;SDS011;64357;51.344;6.550;2023-07-02T07:29:27;8.27;;;3.25;;
75739;SDS011;64357;51.344;6.550;2023-07-02T07:31:52;10.73;;;3.63;;
75739;SDS011;64357;51.344;6.550;2023-07-02T07:34:17;10.50;;;3.53;;
75739;SDS011;64357;51.344;6.550;2023-07-02T07:36:45;12.00;;;3.90;;
75739;SDS011;64357;51.344;6.550;2023-07-02T07:39:11;14.25;;;3.55;;
75739;SDS011;64357;51.344;6.550;2023-07-02T07:41:36;9.83;;;2.90;;
75739;SDS011;64357;51.344;6.550;2023-07-02T07:44:01;11.80;;;3.63;;
75739;SDS011;64357;51.344;6.550;2023-07-02T07:46:29;15.95;;;4.43;;
75739;SDS011;64357;51.344;6.550;2023-07-02T07:48:54;12.83;;;3.37;;
75739;SDS011;64357;51.344;6.550;2023-07-02T07:51:19;10.68;;;3.58;;
75739;SDS011;64357;51.344;6.550;2023-07-02T07:53:45;12.80;;;4.57;;
75739;SDS011;64357;51.344;6.550;2023-07-02T07:56:11;14.48;;;4.55;;
75739;SDS011;64357;51.344;6.550;2023-07-02T07:58:38;11.30;;;3.83;;
75739;SDS011;64357;51.344;6.550;2023-07-02T08:01:04;11.80;;;4.00;;
75739;SDS011;64357;51.344;6.550;2023-07-02T08:03:31;9.25;;;3.97;;
75739;SDS011;64357;51.344;6.550;2023-07-02T08:05:57;14.60;;;4.97;;
75739;SDS011;64357;51.344;6.550;2023-07-02T08:08:24;11.25;;;3.83;;
75739;SDS011;64357;51.344;6.550;2023-07-02T08:10:53;12.23;;;4.27;;
75739;SDS011;64357;51.344;6.550;2023-07-02T08:13:21;15.52;;;4.45;;
75739;SDS011;64357;51.344;6.550;2023-07-02T08:15:49;13.40;;;4.47;;
75739;SDS011;64357;51.344;6.550;2023-07-02T08:18:14;12.40;;;3.87;;
75739;SDS011;64357;51.344;6.550;2023-07-02T08:20:39;9.57;;;2.83;;
75739;SDS011;64357;51.344;6.550;2023-07-02T08:23:08;13.13;;;3.55;;
75739;SDS011;64357;51.344;6.550;2023-07-02T08:25:35;13.77;;;4.33;;
75739;SDS011;64357;51.344;6.550;2023-07-02T08:28:01;10.18;;;3.58;;
75739;SDS011;64357;51.344;6.550;2023-07-02T08:30:26;10.77;;;3.47;;
75739;SDS011;64357;51.344;6.550;2023-07-02T08:32:54;18.65;;;4.47;;
75739;SDS011;64357;51.344;6.550;2023-07-02T08:35:24;10.15;;;3.83;;
75739;SDS011;64357;51.344;6.550;2023-07-02T08:37:52;10.25;;;3.17;;
75739;SDS011;64357;51.344;6.550;2023-07-02T08:40:21;11.40;;;4.35;;
75739;SDS011;64357;51.344;6.550;2023-07-02T08:42:50;11.40;;;3.33;;
75739;SDS011;64357;51.344;6.550;2023-07-02T08:45:18;11.27;;;3.38;;
75739;SDS011;64357;51.344;6.550;2023-07-02T08:48:08;11.00;;;4.07;;
75739;SDS011;64357;51.344;6.550;2023-07-02T08:50:44;9.50;;;3.15;;
75739;SDS011;64357;51.344;6.550;2023-07-02T08:53:54;11.05;;;3.40;;
75739;SDS011;64357;51.344;6.550;2023-07-02T08:56:19;9.73;;;3.60;;
75739;SDS011;64357;51.344;6.550;2023-07-02T08:58:48;13.07;;;4.95;;
75739;SDS011;64357;51.344;6.550;2023-07-02T09:01:14;12.05;;;3.90;;
75739;SDS011;64357;51.344;6.550;2023-07-02T09:03:44;10.05;;;4.53;;
75739;SDS011;64357;51.344;6.550;2023-07-02T09:06:10;12.23;;;4.60;;
75739;SDS011;64357;51.344;6.550;2023-07-02T09:08:37;14.32;;;3.53;;
75739;SDS011;64357;51.344;6.550;2023-07-02T09:13:47;10.90;;;3.95;;
75739;SDS011;64357;51.344;6.550;2023-07-02T09:16:30;14.15;;;4.95;;
75739;SDS011;64357;51.344;6.550;2023-07-02T09:19:00;13.02;;;3.90;;
75739;SDS011;64357;51.344;6.550;2023-07-02T09:24:18;10.25;;;3.60;;
75739;SDS011;64357;51.344;6.550;2023-07-02T09:26:49;13.35;;;4.45;;
75739;SDS011;64357;51.344;6.550;2023-07-02T09:29:33;9.13;;;4.32;;
75739;SDS011;64357;51.344;6.550;2023-07-02T09:34:36;10.55;;;3.88;;
75739;SDS011;64357;51.344;6.550;2023-07-02T09:37:06;12.43;;;4.20;;
75739;SDS011;64357;51.344;6.550;2023-07-02T09:39:32;11.93;;;4.93;;
75739;SDS011;64357;51.344;6.550;2023-07-02T09:42:01;14.98;;;3.47;;
75739;SDS011;64357;51.344;6.550;2023-07-02T09:44:33;11.38;;;3.25;;
75739;SDS011;64357;51.344;6.550;2023-07-02T09:49:31;8.93;;;3.20;;
75739;SDS011;64357;51.344;6.550;2023-07-02T09:52:02;12.05;;;3.53;;
75739;SDS011;64357;51.344;6.550;2023-07-02T09:54:38;14.85;;;4.65;;
75739;SDS011;64357;51.344;6.550;2023-07-02T09:57:04;12.02;;;5.10;;
75739;SDS011;64357;51.344;6.550;2023-07-02T09:59:32;9.48;;;3.45;;
75739;SDS011;64357;51.344;6.550;2023-07-02T10:01:58;10.45;;;3.70;;
75739;SDS011;64357;51.344;6.550;2023-07-02T10:04:24;10.18;;;3.45;;
75739;SDS011;64357;51.344;6.550;2023-07-02T10:09:17;12.03;;;3.27;;
75739;SDS011;64357;51.344;6.550;2023-07-02T10:11:44;13.63;;;4.35;;
75739;SDS011;64357;51.344;6.550;2023-07-02T10:14:16;10.93;;;3.70;;
75739;SDS011;64357;51.344;6.550;2023-07-02T10:16:53;10.65;;;3.83;;
75739;SDS011;64357;51.344;6.550;2023-07-02T10:19:22;9.02;;;3.13;;
75739;SDS011;64357;51.344;6.550;2023-07-02T10:22:00;13.98;;;3.85;;
75739;SDS011;64357;51.344;6.550;2023-07-02T10:24:27;11.05;;;3.30;;
75739;SDS011;64357;51.344;6.550;2023-07-02T10:26:59;10.32;;;2.88;;
75739;SDS011;64357;51.344;6.550;2023-07-02T10:29:26;8.52;;;2.70;;
75739;SDS011;64357;51.344;6.550;2023-07-02T10:31:56;10.27;;;3.53;;
75739;SDS011;64357;51.344;6.550;2023-07-02T10:34:32;11.20;;;3.50;;
75739;SDS011;64357;51.344;6.550;2023-07-02T10:37:02;9.48;;;3.15;;
75739;SDS011;64357;51.344;6.550;2023-07-02T10:39:31;12.05;;;3.63;;
75739;SDS011;64357;51.344;6.550;2023-07-02T10:42:06;13.02;;;3.83;;
75739;SDS011;64357;51.344;6.550;2023-07-02T10:44:32;14.27;;;3.67;;
75739;SDS011;64357;51.344;6.550;2023-07-02T10:46:58;11.75;;;3.40;;
75739;SDS011;64357;51.344;6.550;2023-07-02T10:49:30;12.88;;;3.60;;
75739;SDS011;64357;51.344;6.550;2023-07-02T10:52:00;7.45;;;2.22;;
75739;SDS011;64357;51.344;6.550;2023-07-02T10:54:26;9.90;;;3.88;;
75739;SDS011;64357;51.344;6.550;2023-07-02T10:57:04;11.60;;;3.65;;
75739;SDS011;64357;51.344;6.550;2023-07-02T10:59:30;10.98;;;3.10;;
75739;SDS011;64357;51.344;6.550;2023-07-02T11:01:55;13.07;;;3.60;;
75739;SDS011;64357;51.344;6.550;2023-07-02T11:04:23;10.00;;;3.20;;
75739;SDS011;64357;51.344;6.550;2023-07-02T11:06:49;12.05;;;3.17;;
75739;SDS011;64357;51.344;6.550;2023-07-02T11:09:15;10.43;;;3.22;;
75739;SDS011;64357;51.344;6.550;2023-07-02T11:11:52;9.07;;;3.13;;
75739;SDS011;64357;51.344;6.550;2023-07-02T11:14:26;10.50;;;3.15;;
75739;SDS011;64357;51.344;6.550;2023-07-02T11:17:00;7.00;;;2.38;;
75739;SDS011;64357;51.344;6.550;2023-07-02T11:19:28;9.60;;;3.10;;
75739;SDS011;64357;51.344;6.550;2023-07-02T11:21:54;11.10;;;3.17;;
75739;SDS011;64357;51.344;6.550;2023-07-02T11:24:55;12.27;;;3.72;;
75739;SDS011;64357;51.344;6.550;2023-07-02T11:27:20;12.05;;;3.17;;
75739;SDS011;64357;51.344;6.550;2023-07-02T11:29:48;11.50;;;3.08;;
75739;SDS011;64357;51.344;6.550;2023-07-02T11:32:26;10.13;;;3.42;;
75739;SDS011;64357;51.344;6.550;2023-07-02T11:34:55;11.25;;;3.70;;
75739;SDS011;64357;51.344;6.550;2023-07-02T11:37:21;9.63;;;3.45;;
75739;SDS011;64357;51.344;6.550;2023-07-02T11:39:47;11.30;;;3.42;;
75739;SDS011;64357;51.344;6.550;2023-07-02T11:42:21;9.90;;;3.63;;
75739;SDS011;64357;51.344;6.550;2023-07-02T11:44:46;10.20;;;4.10;;
75739;SDS011;64357;51.344;6.550;2023-07-02T11:47:12;12.43;;;4.22;;
75739;SDS011;64357;51.344;6.550;2023-07-02T11:49:37;12.03;;;4.90;;
75739;SDS011;64357;51.344;6.550;2023-07-02T11:52:05;14.82;;;4.57;;
75739;SDS011;64357;51.344;6.550;2023-07-02T11:54:30;10.55;;;4.18;;
75739;SDS011;64357;51.344;6.550;2023-07-02T11:56:58;13.88;;;5.50;;
75739;SDS011;64357;51.344;6.550;2023-07-02T11:59:25;11.97;;;3.97;;
75739;SDS011;64357;51.344;6.550;2023-07-02T12:01:53;8.25;;;3.47;;
75739;SDS011;64357;51.344;6.550;2023-07-02T12:04:21;12.98;;;4.63;;
75739;SDS011;64357;51.344;6.550;2023-07-02T12:06:46;14.23;;;4.65;;
75739;SDS011;64357;51.344;6.550;2023-07-02T12:09:12;14.65;;;4.22;;
75739;SDS011;64357;51.344;6.550;2023-07-02T12:11:37;14.20;;;4.60;;
75739;SDS011;64357;51.344;6.550;2023-07-02T12:14:02;12.10;;;4.05;;
75739;SDS011;64357;51.344;6.550;2023-07-02T12:16:31;12.40;;;4.18;;
75739;SDS011;64357;51.344;6.550;2023-07-02T12:21:34;17.80;;;5.38;;
75739;SDS011;64357;51.344;6.550;2023-07-02T12:23:59;12.23;;;3.70;;
75739;SDS011;64357;51.344;6.550;2023-07-02T12:26:24;12.73;;;4.40;;
75739;SDS011;64357;51.344;6.550;2023-07-02T12:28:50;10.97;;;3.70;;
75739;SDS011;64357;51.344;6.550;2023-07-02T12:31:15;12.45;;;4.50;;
75739;SDS011;64357;51.344;6.550;2023-07-02T12:33:41;14.67;;;4.97;;
75739;SDS011;64357;51.344;6.550;2023-07-02T12:36:06;13.50;;;3.92;;
75739;SDS011;64357;51.344;6.550;2023-07-02T12:38:31;12.70;;;4.30;;
75739;SDS011;64357;51.344;6.550;2023-07-02T12:40:57;12.03;;;4.17;;
75739;SDS011;64357;51.344;6.550;2023-07-02T12:43:24;8.52;;;3.20;;
75739;SDS011;64357;51.344;6.550;2023-07-02T12:45:52;11.25;;;4.32;;
75739;SDS011;64357;51.344;6.550;2023-07-02T12:48:17;11.17;;;4.13;;
75739;SDS011;64357;51.344;6.550;2023-07-02T12:50:52;12.57;;;3.63;;
75739;SDS011;64357;51.344;6.550;2023-07-02T12:53:18;14.52;;;4.00;;
75739;SDS011;64357;51.344;6.550;2023-07-02T12:58:13;12.50;;;3.80;;
75739;SDS011;64357;51.344;6.550;2023-07-02T13:00:38;16.00;;;4.10;;
75739;SDS011;64357;51.344;6.550;2023-07-02T13:03:04;11.27;;;4.38;;
75739;SDS011;64357;51.344;6.550;2023-07-02T13:05:29;7.00;;;2.83;;
75739;SDS011;64357;51.344;6.550;2023-07-02T13:07:54;12.27;;;4.60;;
75739;SDS011;64357;51.344;6.550;2023-07-02T13:10:22;14.75;;;4.40;;
75739;SDS011;64357;51.344;6.550;2023-07-02T13:12:47;10.17;;;3.60;;
75739;SDS011;64357;51.344;6.550;2023-07-02T13:15:13;13.03;;;4.10;;
75739;SDS011;64357;51.344;6.550;2023-07-02T13:17:38;13.50;;;4.87;;
75739;SDS011;64357;51.344;6.550;2023-07-02T13:20:03;12.05;;;4.53;;
75739;SDS011;64357;51.344;6.550;2023-07-02T13:22:30;11.80;;;3.80;;
75739;SDS011;64357;51.344;6.550;2023-07-02T13:24:55;14.67;;;4.63;;
75739;SDS011;64357;51.344;6.550;2023-07-02T13:27:20;9.23;;;3.67;;
75739;SDS011;64357;51.344;6.550;2023-07-02T13:29:46;12.87;;;3.97;;
75739;SDS011;64357;51.344;6.550;2023-07-02T13:32:11;14.70;;;4.53;;
75739;SDS011;64357;51.344;6.550;2023-07-02T13:34:37;10.48;;;3.72;;
75739;SDS011;64357;51.344;6.550;2023-07-02T13:37:04;12.07;;;4.22;;
75739;SDS011;64357;51.344;6.550;2023-07-02T13:39:32;12.68;;;4.43;;
75739;SDS011;64357;51.344;6.550;2023-07-02T13:41:57;7.80;;;3.30;;
75739;SDS011;64357;51.344;6.550;2023-07-02T13:44:22;13.17;;;4.20;;
75739;SDS011;64357;51.344;6.550;2023-07-02T13:46:48;10.82;;;3.72;;
75739;SDS011;64357;51.344;6.550;2023-07-02T13:49:16;12.00;;;4.53;;
75739;SDS011;64357;51.344;6.550;2023-07-02T13:51:42;10.50;;;3.60;;
75739;SDS011;64357;51.344;6.550;2023-07-02T13:54:11;9.45;;;3.30;;
75739;SDS011;64357;51.344;6.550;2023-07-02T13:56:39;14.27;;;4.55;;
75739;SDS011;64357;51.344;6.550;2023-07-02T13:59:04;13.05;;;4.07;;
75739;SDS011;64357;51.344;6.550;2023-07-02T14:01:30;12.40;;;4.38;;
75739;SDS011;64357;51.344;6.550;2023-07-02T14:03:55;9.63;;;3.78;;
75739;SDS011;64357;51.344;6.550;2023-07-02T14:06:21;10.80;;;3.75;;
75739;SDS011;64357;51.344;6.550;2023-07-02T14:08:49;10.50;;;3.42;;
75739;SDS011;64357;51.344;6.550;2023-07-02T14:11:17;12.20;;;4.05;;
75739;SDS011;64357;51.344;6.550;2023-07-02T14:13:42;11.93;;;4.05;;
75739;SDS011;64357;51.344;6.550;2023-07-02T14:16:08;10.50;;;3.80;;
75739;SDS011;64357;51.344;6.550;2023-07-02T14:18:33;12.23;;;4.27;;
75739;SDS011;64357;51.344;6.550;2023-07-02T14:20:58;11.20;;;3.57;;
75739;SDS011;64357;51.344;6.550;2023-07-02T14:23:24;12.43;;;4.80;;
75739;SDS011;64357;51.344;6.550;2023-07-02T14:25:49;14.57;;;5.23;;
75739;SDS011;64357;51.344;6.550;2023-07-02T14:28:14;14.50;;;4.03;;
75739;SDS011;64357;51.344;6.550;2023-07-02T14:30:40;14.53;;;4.80;;
75739;SDS011;64357;51.344;6.550;2023-07-02T14:33:07;11.15;;;3.70;;
75739;SDS011;64357;51.344;6.550;2023-07-02T14:35:33;11.88;;;3.90;;
75739;SDS011;64357;51.344;6.550;2023-07-02T14:37:59;13.93;;;5.20;;
75739;SDS011;64357;51.344;6.550;2023-07-02T14:40:27;14.82;;;4.95;;
75739;SDS011;64357;51.344;6.550;2023-07-02T14:43:02;20.10;;;5.00;;
75739;SDS011;64357;51.344;6.550;2023-07-02T14:45:29;13.02;;;4.82;;
75739;SDS011;64357;51.344;6.550;2023-07-02T14:47:54;11.68;;;4.03;;
75739;SDS011;64357;51.344;6.550;2023-07-02T14:50:24;13.98;;;5.57;;
75739;SDS011;64357;51.344;6.550;2023-07-02T14:52:50;14.45;;;4.97;;
75739;SDS011;64357;51.344;6.550;2023-07-02T14:55:15;12.90;;;4.23;;